createdAt,value
2019-03-15T00:00:25.828Z,6.95
2019-03-15T00:02:56.678Z,7.37
2019-03-15T00:05:27.207Z,6.85
2019-03-15T00:07:57.613Z,6.92
2019-03-15T00:10:28.060Z,7.00
2019-03-15T00:12:58.373Z,6.92
2019-03-15T00:15:28.716Z,6.58
2019-03-15T00:17:59.000Z,7.15
2019-03-15T00:20:29.379Z,7.05
2019-03-15T00:22:59.717Z,6.83
2019-03-15T00:25:30.178Z,6.87
2019-03-15T00:28:00.525Z,7.03
2019-03-15T00:30:30.822Z,6.67
2019-03-15T00:33:01.278Z,6.60
2019-03-15T00:35:31.742Z,6.80
2019-03-15T00:38:02.276Z,6.72
2019-03-15T00:40:32.588Z,6.95
2019-03-15T00:43:02.990Z,7.35
2019-03-15T00:45:33.320Z,6.55
2019-03-15T00:48:03.756Z,6.30
2019-03-15T00:50:34.155Z,6.65
2019-03-15T00:53:04.553Z,7.58
2019-03-15T00:55:34.874Z,6.92
2019-03-15T00:58:05.261Z,6.50
2019-03-15T01:00:35.608Z,6.47
2019-03-15T01:03:06.212Z,6.72
2019-03-15T01:05:36.582Z,6.30
2019-03-15T01:08:06.920Z,6.70
2019-03-15T01:10:37.293Z,6.53
2019-03-15T01:13:07.614Z,6.42
2019-03-15T01:15:37.907Z,7.17
2019-03-15T01:18:08.265Z,5.83
2019-03-15T01:20:38.694Z,6.17
2019-03-15T01:23:09.122Z,6.92
2019-03-15T01:25:39.418Z,6.55
2019-03-15T01:28:09.852Z,6.70
2019-03-15T01:30:40.081Z,6.97
2019-03-15T01:33:10.449Z,6.55
2019-03-15T01:35:40.784Z,6.67
2019-03-15T01:38:11.208Z,6.22
2019-03-15T01:40:41.635Z,6.45
2019-03-15T01:43:12.844Z,6.55
2019-03-15T01:45:43.663Z,6.33
2019-03-15T01:48:14.241Z,6.67
2019-03-15T01:50:44.714Z,6.72
2019-03-15T01:53:15.063Z,6.47
2019-03-15T01:55:45.484Z,6.67
2019-03-15T01:58:15.876Z,6.60
2019-03-15T02:00:46.249Z,7.03
2019-03-15T02:03:16.748Z,7.05
2019-03-15T02:05:47.081Z,7.30
2019-03-15T02:08:17.415Z,6.62
2019-03-15T02:10:47.793Z,6.40
2019-03-15T02:13:18.126Z,6.37
2019-03-15T02:15:48.524Z,6.60
2019-03-15T02:18:18.917Z,6.67
2019-03-15T02:20:49.301Z,6.70
2019-03-15T02:23:19.754Z,7.25
2019-03-15T02:25:50.058Z,7.08
2019-03-15T02:28:39.620Z,6.67
2019-03-15T02:31:10.037Z,6.97
2019-03-15T02:33:40.538Z,7.25
2019-03-15T02:36:14.059Z,6.58
2019-03-15T02:38:44.763Z,7.10
2019-03-15T02:41:16.231Z,6.62
2019-03-15T02:43:46.549Z,6.60
2019-03-15T02:46:17.004Z,6.55
2019-03-15T02:48:47.513Z,6.55
2019-03-15T02:51:17.953Z,6.90
2019-03-15T02:53:49.423Z,6.92
2019-03-15T02:56:19.802Z,6.95
2019-03-15T02:58:50.108Z,7.45
2019-03-15T03:01:20.452Z,7.22
2019-03-15T03:03:50.846Z,6.83
2019-03-15T03:06:21.288Z,6.53
2019-03-15T03:08:51.780Z,7.10
2019-03-15T03:11:22.140Z,7.15
2019-03-15T03:13:52.592Z,6.45
2019-03-15T03:16:23.097Z,7.37
2019-03-15T03:18:53.477Z,6.75
2019-03-15T03:21:23.882Z,7.42
2019-03-15T03:23:54.256Z,6.37
2019-03-15T03:26:24.762Z,6.78
2019-03-15T03:28:55.059Z,7.42
2019-03-15T03:31:25.536Z,6.92
2019-03-15T03:33:55.916Z,6.83
2019-03-15T03:36:26.351Z,6.85
2019-03-15T03:38:56.720Z,6.80
2019-03-15T03:41:27.161Z,7.15
2019-03-15T03:43:57.601Z,6.78
2019-03-15T03:46:27.994Z,6.85
2019-03-15T03:48:58.377Z,7.03
2019-03-15T03:51:28.753Z,7.08
2019-03-15T03:53:59.176Z,6.72
2019-03-15T03:56:29.471Z,6.50
2019-03-15T03:58:59.860Z,6.42
2019-03-15T04:01:30.176Z,6.95
2019-03-15T04:04:00.492Z,6.50
2019-03-15T04:06:30.946Z,7.08
2019-03-15T04:09:01.335Z,6.47
2019-03-15T04:11:31.981Z,6.33
2019-03-15T04:14:02.381Z,6.75
2019-03-15T04:16:32.861Z,7.20
2019-03-15T04:19:03.237Z,6.37
2019-03-15T04:21:33.598Z,6.72
2019-03-15T04:24:03.952Z,6.40
2019-03-15T04:26:34.374Z,6.67
2019-03-15T04:29:04.821Z,6.17
2019-03-15T04:31:35.199Z,6.53
2019-03-15T04:34:05.706Z,6.60
2019-03-15T04:36:36.184Z,6.92
2019-03-15T04:39:08.108Z,6.20
2019-03-15T04:41:38.438Z,6.58
2019-03-15T04:44:08.882Z,6.17
2019-03-15T04:46:51.257Z,6.67
2019-03-15T04:49:21.647Z,6.45
2019-03-15T04:52:11.231Z,6.22
2019-03-15T04:54:41.688Z,6.47
2019-03-15T04:57:12.116Z,6.70
2019-03-15T04:59:42.564Z,6.03
2019-03-15T05:02:12.933Z,6.58
2019-03-15T05:04:43.349Z,6.10
2019-03-15T05:07:13.852Z,6.00
2019-03-15T05:09:44.147Z,6.12
2019-03-15T05:12:14.629Z,6.20
2019-03-15T05:14:45.074Z,6.30
2019-03-15T05:17:15.465Z,6.00
2019-03-15T05:19:45.939Z,6.17
2019-03-15T05:22:16.268Z,5.95
2019-03-15T05:24:46.643Z,6.05
2019-03-15T05:27:17.004Z,5.75
2019-03-15T05:29:47.359Z,5.75
2019-03-15T05:32:17.723Z,5.75
2019-03-15T05:34:48.124Z,6.28
2019-03-15T05:37:18.556Z,5.60
2019-03-15T05:39:49.040Z,6.03
2019-03-15T05:42:19.418Z,5.87
2019-03-15T05:44:49.812Z,6.12
2019-03-15T05:47:20.223Z,5.78
2019-03-15T05:49:50.696Z,5.50
2019-03-15T05:52:21.100Z,6.03
2019-03-15T05:54:51.674Z,5.97
2019-03-15T05:57:21.972Z,6.33
2019-03-15T05:59:52.372Z,5.60
2019-03-15T06:02:22.710Z,5.60
2019-03-15T06:04:53.024Z,6.17
2019-03-15T06:07:23.459Z,5.30
2019-03-15T06:09:53.697Z,5.80
2019-03-15T06:12:26.971Z,6.33
2019-03-15T06:14:57.398Z,5.20
2019-03-15T06:17:30.463Z,5.72
2019-03-15T06:20:00.771Z,5.53
2019-03-15T06:22:31.121Z,5.42
2019-03-15T06:25:01.565Z,5.53
2019-03-15T06:27:32.069Z,5.78
2019-03-15T06:30:02.542Z,5.37
2019-03-15T06:32:32.975Z,5.20
2019-03-15T06:35:03.474Z,5.75
2019-03-15T06:37:33.940Z,5.25
2019-03-15T06:40:04.294Z,5.53
2019-03-15T06:42:34.676Z,5.72
2019-03-15T06:45:05.906Z,5.72
2019-03-15T06:47:36.340Z,5.75
2019-03-15T06:50:06.823Z,5.25
2019-03-15T06:52:39.879Z,5.35
2019-03-15T06:55:10.476Z,5.53
2019-03-15T06:57:41.264Z,5.50
2019-03-15T07:00:14.280Z,5.25
2019-03-15T07:02:46.024Z,5.03
2019-03-15T07:05:16.901Z,5.20
2019-03-15T07:07:51.484Z,5.05
2019-03-15T07:10:22.261Z,4.97
2019-03-15T07:12:53.757Z,5.17
2019-03-15T07:15:24.230Z,4.35
2019-03-15T07:24:59.781Z,5.00
2019-03-15T07:27:42.771Z,5.37
2019-03-15T07:30:16.702Z,5.58
2019-03-15T07:32:48.342Z,4.75
2019-03-15T07:35:24.398Z,4.92
2019-03-15T07:37:55.841Z,5.72
2019-03-15T07:40:27.883Z,5.08
2019-03-15T07:43:05.128Z,4.37
2019-03-15T07:45:34.914Z,4.60
2019-03-15T07:48:21.886Z,4.60
2019-03-15T07:50:45.273Z,4.53
2019-03-15T07:53:18.076Z,4.92
2019-03-15T07:55:49.154Z,4.80
2019-03-15T07:58:29.243Z,4.90
2019-03-15T08:01:02.156Z,4.70
2019-03-15T08:14:41.300Z,4.78
2019-03-15T08:17:17.884Z,3.60
2019-03-15T08:20:08.756Z,4.00
2019-03-15T08:25:28.587Z,3.85
2019-03-15T08:28:00.210Z,4.00
2019-03-15T08:30:32.220Z,3.85
2019-03-15T08:33:10.118Z,4.00
2019-03-15T08:35:39.427Z,3.60
2019-03-15T08:38:10.081Z,4.62
2019-03-15T08:40:42.130Z,4.62
2019-03-15T08:43:15.868Z,3.98
2019-03-15T08:45:47.238Z,3.62
2019-03-15T08:48:18.287Z,4.15
2019-03-15T08:50:59.785Z,3.65
2019-03-15T08:53:33.960Z,3.75
2019-03-15T08:56:08.192Z,3.98
2019-03-15T08:58:45.437Z,3.58
2019-03-15T09:01:16.211Z,4.20
2019-03-15T09:03:47.308Z,4.60
2019-03-15T09:06:17.833Z,4.72
2019-03-15T09:08:51.082Z,4.25
2019-03-15T09:11:27.671Z,4.03
2019-03-15T09:14:03.148Z,4.83
2019-03-15T09:16:34.646Z,5.72
2019-03-15T09:19:07.600Z,5.58
2019-03-15T09:30:45.625Z,5.67
2019-03-15T09:38:49.004Z,6.03
2019-03-15T09:41:39.920Z,6.37
2019-03-15T09:44:15.498Z,5.78
2019-03-15T09:49:35.538Z,5.30
2019-03-15T09:52:07.053Z,4.62
2019-03-15T10:00:29.247Z,4.37
2019-03-15T10:03:00.069Z,4.95
2019-03-15T10:08:26.905Z,5.05
2019-03-15T10:10:57.932Z,4.62
2019-03-15T10:13:31.786Z,4.05
2019-03-15T10:16:02.065Z,3.70
2019-03-15T10:20:45.636Z,4.00
2019-03-15T10:23:41.187Z,3.27
2019-03-15T10:28:40.298Z,3.92
2019-03-15T10:31:11.076Z,3.77
2019-03-15T10:39:06.407Z,4.03
2019-03-15T10:44:21.954Z,3.83
2019-03-15T10:46:55.195Z,4.03
2019-03-15T10:52:17.557Z,4.62
2019-03-15T10:54:48.642Z,4.67
2019-03-15T10:57:19.441Z,4.20
2019-03-15T10:59:50.140Z,3.75
2019-03-15T11:02:24.533Z,4.42
2019-03-15T11:05:08.194Z,3.92
2019-03-15T11:07:57.455Z,4.45
2019-03-15T11:15:43.917Z,3.72
2019-03-15T11:18:22.973Z,5.30
2019-03-15T11:20:53.129Z,4.15
2019-03-15T11:23:24.393Z,4.62
2019-03-15T11:25:56.378Z,4.08
2019-03-15T11:31:48.823Z,4.50
2019-03-15T11:34:19.455Z,3.92
2019-03-15T11:36:58.171Z,4.53
2019-03-15T11:42:15.879Z,3.75
2019-03-15T11:53:36.426Z,3.77
2019-03-15T11:56:26.557Z,2.75
2019-03-15T11:58:56.427Z,2.70
2019-03-15T12:02:03.197Z,3.47
2019-03-15T12:06:48.621Z,3.98
2019-03-15T12:09:19.201Z,3.62
2019-03-15T12:12:16.820Z,4.62
2019-03-15T12:14:51.775Z,6.97
2019-03-15T12:17:29.714Z,11.18
2019-03-15T12:34:09.803Z,5.85
2019-03-15T12:36:42.179Z,5.25
2019-03-15T12:39:20.982Z,5.47
2019-03-15T12:41:51.545Z,5.87
2019-03-15T12:44:21.740Z,4.58
2019-03-15T12:47:06.355Z,5.00
2019-03-15T12:52:45.903Z,4.90
2019-03-15T12:55:06.701Z,4.30
2019-03-15T13:01:25.993Z,5.08
2019-03-15T13:03:58.951Z,5.78
2019-03-15T13:06:30.963Z,4.50
2019-03-15T13:09:02.173Z,4.72
2019-03-15T13:11:33.289Z,5.28
2019-03-15T13:25:32.715Z,6.17
2019-03-15T13:28:03.619Z,7.05
2019-03-15T13:30:34.955Z,7.85
2019-03-15T13:33:19.484Z,6.53
2019-03-15T13:35:41.206Z,6.12
2019-03-15T13:38:13.874Z,6.03
2019-03-15T13:40:47.415Z,5.08
2019-03-15T13:43:19.305Z,5.62
2019-03-15T13:45:52.614Z,6.12
2019-03-15T13:48:32.961Z,5.80
2019-03-15T13:51:06.415Z,4.12
2019-03-15T13:53:37.093Z,4.45
2019-03-15T13:56:07.686Z,4.28
2019-03-15T13:58:42.243Z,4.85
2019-03-15T14:01:12.871Z,3.55
2019-03-15T14:03:46.507Z,4.87
2019-03-15T14:06:38.677Z,4.15
2019-03-15T14:09:13.889Z,4.28
2019-03-15T14:11:46.988Z,4.00
2019-03-15T14:14:27.013Z,3.72
2019-03-15T14:17:04.237Z,3.17
2019-03-15T14:19:37.783Z,3.10
2019-03-15T14:22:08.468Z,4.08
2019-03-15T14:24:39.194Z,3.10
2019-03-15T14:27:14.799Z,4.08
2019-03-15T14:29:47.200Z,3.22
2019-03-15T14:32:28.449Z,3.20
2019-03-15T14:35:47.504Z,3.25
2019-03-15T14:38:14.837Z,3.02
2019-03-15T14:40:47.031Z,2.80
2019-03-15T14:43:23.552Z,2.35
2019-03-15T14:45:56.181Z,2.67
2019-03-15T14:48:30.877Z,2.50
2019-03-15T14:51:03.067Z,2.85
2019-03-15T14:53:37.308Z,2.50
2019-03-15T14:56:08.815Z,2.92
2019-03-15T14:58:39.805Z,2.33
2019-03-15T15:01:14.632Z,2.90
2019-03-15T15:03:49.671Z,2.40
2019-03-15T15:06:21.477Z,2.22
2019-03-15T15:08:51.929Z,2.50
2019-03-15T15:11:25.759Z,2.58
2019-03-15T15:13:55.423Z,2.67
2019-03-15T15:16:25.899Z,2.65
2019-03-15T15:18:58.177Z,2.62
2019-03-15T15:21:30.385Z,1.92
2019-03-15T15:24:01.046Z,2.25
2019-03-15T15:26:31.406Z,1.98
2019-03-15T15:29:01.927Z,2.15
2019-03-15T15:31:32.498Z,2.10
2019-03-15T15:34:03.049Z,1.60
2019-03-15T15:36:33.537Z,2.17
2019-03-15T15:39:04.248Z,2.00
2019-03-15T15:41:36.322Z,1.92
2019-03-15T15:44:06.873Z,1.92
2019-03-15T15:46:37.347Z,2.33
2019-03-15T15:49:11.100Z,2.40
2019-03-15T15:51:41.622Z,2.15
2019-03-15T15:54:12.036Z,3.08
2019-03-15T15:56:42.480Z,2.42
2019-03-15T15:59:12.888Z,3.47
2019-03-15T16:01:43.408Z,2.65
2019-03-15T16:04:14.023Z,2.80
2019-03-15T16:06:44.528Z,3.15
2019-03-15T16:09:16.899Z,2.98
2019-03-15T16:11:47.383Z,3.92
2019-03-15T16:14:17.758Z,4.42
2019-03-15T16:16:48.188Z,3.67
2019-03-15T16:19:18.636Z,4.17
2019-03-15T16:21:48.975Z,4.53
2019-03-15T16:24:19.331Z,4.10
2019-03-15T16:26:49.701Z,4.17
2019-03-15T16:29:19.969Z,4.50
2019-03-15T16:31:50.321Z,4.22
2019-03-15T16:34:22.058Z,3.87
2019-03-15T16:36:52.795Z,4.03
2019-03-15T16:39:23.244Z,3.80
2019-03-15T16:41:53.604Z,4.80
2019-03-15T16:44:23.963Z,4.47
2019-03-15T16:46:54.346Z,4.12
2019-03-15T16:49:24.740Z,4.10
2019-03-15T16:51:55.187Z,4.25
2019-03-15T16:54:25.614Z,4.42
2019-03-15T16:56:56.012Z,4.60
2019-03-15T16:59:26.613Z,4.05
2019-03-15T17:01:56.965Z,4.40
2019-03-15T17:04:27.482Z,3.72
2019-03-15T17:07:00.682Z,4.25
2019-03-15T17:09:30.239Z,4.08
2019-03-15T17:12:00.695Z,3.72
2019-03-15T17:14:31.090Z,3.83
2019-03-15T17:17:01.512Z,3.70
2019-03-15T17:19:32.998Z,3.87
2019-03-15T17:22:03.491Z,3.62
2019-03-15T17:24:34.953Z,3.40
2019-03-15T17:27:05.347Z,3.30
2019-03-15T17:29:35.962Z,3.87
2019-03-15T17:32:06.424Z,3.62
2019-03-15T17:34:38.433Z,3.67
2019-03-15T17:37:08.828Z,3.12
2019-03-15T17:39:39.337Z,3.08
2019-03-15T17:42:09.934Z,4.45
2019-03-15T17:44:40.566Z,3.42
2019-03-15T17:47:11.139Z,3.35
2019-03-15T17:49:41.574Z,3.30
2019-03-15T17:52:12.011Z,3.83
2019-03-15T17:54:42.434Z,3.40
2019-03-15T17:57:12.809Z,3.60
2019-03-15T17:59:58.954Z,3.83
2019-03-15T18:02:29.681Z,3.72
2019-03-15T18:04:59.435Z,4.42
2019-03-15T18:07:29.961Z,3.60
2019-03-15T18:10:00.387Z,3.75
2019-03-15T18:12:30.813Z,3.47
2019-03-15T18:15:01.320Z,3.77
2019-03-15T18:17:32.185Z,3.60
2019-03-15T18:20:03.574Z,3.17
2019-03-15T18:22:34.032Z,3.20
2019-03-15T18:25:04.476Z,3.75
2019-03-15T18:27:36.038Z,3.50
2019-03-15T18:30:09.600Z,3.62
2019-03-15T18:32:40.079Z,4.10
2019-03-15T18:35:12.789Z,3.10
2019-03-15T18:37:43.126Z,3.87
2019-03-15T18:40:13.690Z,3.90
2019-03-15T18:42:44.143Z,4.08
2019-03-15T18:45:14.556Z,3.22
2019-03-15T18:47:44.895Z,3.67
2019-03-15T18:50:17.761Z,3.77
2019-03-15T18:52:48.185Z,3.65
2019-03-15T18:55:18.488Z,3.37
2019-03-15T18:57:49.385Z,3.87
2019-03-15T19:00:22.921Z,3.77
2019-03-15T19:02:53.351Z,3.75
2019-03-15T19:05:23.667Z,4.12
2019-03-15T19:07:54.054Z,3.65
2019-03-15T19:10:24.484Z,3.58
2019-03-15T19:12:54.920Z,3.98
2019-03-15T19:15:25.277Z,3.55
2019-03-15T19:17:55.687Z,3.37
2019-03-15T19:20:26.195Z,4.10
2019-03-15T19:22:57.431Z,4.10
2019-03-15T19:25:27.820Z,4.25
2019-03-15T19:27:59.496Z,3.47
2019-03-15T19:30:29.782Z,3.83
2019-03-15T19:33:00.312Z,4.30
2019-03-15T19:35:30.608Z,3.80
2019-03-15T19:38:00.992Z,3.47
2019-03-15T19:40:31.420Z,4.00
2019-03-15T19:43:01.900Z,3.62
2019-03-15T19:45:32.293Z,3.67
2019-03-15T19:48:02.713Z,4.35
2019-03-15T19:50:33.058Z,4.00
2019-03-15T19:53:03.612Z,4.05
2019-03-15T19:55:34.039Z,3.98
2019-03-15T19:58:04.573Z,4.00
2019-03-15T20:00:34.967Z,4.08
2019-03-15T20:03:05.472Z,4.22
2019-03-15T20:05:35.904Z,3.65
2019-03-15T20:08:06.338Z,3.90
2019-03-15T20:10:36.607Z,3.70
2019-03-15T20:13:07.083Z,4.00
2019-03-15T20:15:37.479Z,4.22
2019-03-15T20:18:07.782Z,4.37
2019-03-15T20:20:38.208Z,4.03
2019-03-15T20:23:08.607Z,4.10
2019-03-15T20:25:39.031Z,4.00
2019-03-15T20:28:09.460Z,3.90
2019-03-15T20:30:51.221Z,3.80
2019-03-15T20:33:12.148Z,4.28
2019-03-15T20:35:42.528Z,4.08
2019-03-15T20:38:13.031Z,4.53
2019-03-15T20:40:43.493Z,4.05
2019-03-15T20:43:13.976Z,4.12
2019-03-15T20:45:44.459Z,3.70
2019-03-15T20:48:14.875Z,3.83
2019-03-15T20:50:47.090Z,4.20
2019-03-15T20:53:17.290Z,4.50
2019-03-15T20:55:50.869Z,4.17
2019-03-15T20:58:22.414Z,4.33
2019-03-15T21:00:54.166Z,4.20
2019-03-15T21:03:24.579Z,4.45
2019-03-15T21:05:55.064Z,4.00
2019-03-15T21:08:25.547Z,3.95
2019-03-15T21:10:55.913Z,4.03
2019-03-15T21:13:26.273Z,4.12
2019-03-15T21:15:56.777Z,4.28
2019-03-15T21:18:27.157Z,3.98
2019-03-15T21:20:57.544Z,3.50
2019-03-15T21:23:27.965Z,4.20
2019-03-15T21:25:58.348Z,3.90
2019-03-15T21:28:31.849Z,3.55
2019-03-15T21:31:02.311Z,4.10
2019-03-15T21:33:32.713Z,4.00
2019-03-15T21:36:03.206Z,4.37
2019-03-15T21:38:47.314Z,4.03
2019-03-15T21:41:05.701Z,3.92
2019-03-15T21:43:36.165Z,4.10
2019-03-15T21:46:06.470Z,4.20
2019-03-15T21:48:36.820Z,3.95
2019-03-15T21:51:07.140Z,3.90
2019-03-15T21:53:37.635Z,3.87
2019-03-15T21:56:08.109Z,3.67
2019-03-15T21:58:38.537Z,4.10
2019-03-15T22:01:08.919Z,3.90
2019-03-15T22:03:40.168Z,4.62
2019-03-15T22:06:10.490Z,3.47
2019-03-15T22:08:40.963Z,3.83
2019-03-15T22:11:20.937Z,3.90
2019-03-15T22:13:43.385Z,3.37
2019-03-15T22:16:13.960Z,4.60
2019-03-15T22:18:44.422Z,3.87
2019-03-15T22:21:14.973Z,3.67
2019-03-15T22:23:45.417Z,3.77
2019-03-15T22:26:15.847Z,4.03
2019-03-15T22:28:48.017Z,4.15
2019-03-15T22:31:18.444Z,4.20
2019-03-15T22:33:48.892Z,4.10
2019-03-15T22:36:19.419Z,4.00
2019-03-15T22:38:49.814Z,3.50
2019-03-15T22:41:20.319Z,3.87
2019-03-15T22:43:50.752Z,3.52
2019-03-15T22:46:21.132Z,3.12
2019-03-15T22:48:51.454Z,3.75
2019-03-15T22:51:21.919Z,3.80
2019-03-15T22:53:52.292Z,3.85
2019-03-15T22:56:22.770Z,3.72
2019-03-15T22:58:53.165Z,3.92
2019-03-15T23:01:30.085Z,4.05
2019-03-15T23:03:55.800Z,3.80
2019-03-15T23:06:26.198Z,3.60
2019-03-15T23:08:56.659Z,3.83
2019-03-15T23:11:27.051Z,3.67
2019-03-15T23:13:59.077Z,3.12
2019-03-15T23:16:29.515Z,3.67
2019-03-15T23:19:00.007Z,3.52
2019-03-15T23:21:30.308Z,3.65
2019-03-15T23:24:00.909Z,3.50
2019-03-15T23:26:31.346Z,3.40
2019-03-15T23:29:01.882Z,3.40
2019-03-15T23:31:42.915Z,3.75
2019-03-15T23:34:04.376Z,3.25
2019-03-15T23:36:34.789Z,2.95
2019-03-15T23:39:06.789Z,3.20
2019-03-15T23:41:37.317Z,3.00
2019-03-15T23:44:07.805Z,3.35
2019-03-15T23:46:38.139Z,3.42
2019-03-15T23:49:08.690Z,3.25
2019-03-15T23:51:39.179Z,3.20
2019-03-15T23:54:09.685Z,3.25
2019-03-15T23:56:40.094Z,2.95
2019-03-15T23:59:10.444Z,2.65
